Time;durP1;ratioP1;P1;durP2;ratioP2;P2;SDS_P1;SDS_P2;PMS_P1;PMS_P2;Temp;Humidity;BMP_temperature;BMP_pressure;BME280_temperature;BME280_humidity;BME280_pressure;Samples;Min_cycle;Max_cycle;Signal;HPM_P1;HPM_P2
2022/06/11 05:10:20;;;;;;;14.15;2.45;;;;;;;15.78;76.25;102283.84;5095645;27;126449;-32
2022/06/11 05:12:46;;;;;;;7.13;1.75;;;;;;;15.81;75.43;102282.78;5079336;27;96964;-33
2022/06/11 05:15:11;;;;;;;4.72;1.33;;;;;;;15.86;75.54;102272.44;5098754;27;97795;-33
2022/06/11 05:17:37;;;;;;;13.35;1.95;;;;;;;15.89;75.57;102273.13;5098126;27;97474;-33
2022/06/11 05:20:04;;;;;;;12.18;1.55;;;;;;;15.91;76.32;102271.19;5098317;27;97123;-33
2022/06/11 05:22:29;;;;;;;5.88;1.67;;;;;;;15.99;75.44;102269.81;5079316;27;96620;-33
2022/06/11 05:24:55;;;;;;;17.60;1.88;;;;;;;16.11;75.57;102277.25;5098293;27;96812;-33
2022/06/11 05:27:23;;;;;;;2.90;1.10;;;;;;;16.13;75.63;102270.72;5098228;27;97978;-33
2022/06/11 05:29:54;;;;;;;8.05;1.65;;;;;;;16.26;75.51;102284.53;5079298;27;100971;-33
2022/06/11 05:32:29;;;;;;;14.25;2.75;;;;;;;16.36;75.50;102287.56;5098031;27;96558;-33
2022/06/11 05:34:56;;;;;;;14.88;2.22;;;;;;;16.39;74.75;102275.53;5098423;27;96642;-33
2022/06/11 05:37:21;;;;;;;8.60;1.85;;;;;;;16.44;75.14;102282.47;5078642;27;100884;-33
2022/06/11 05:39:46;;;;;;;14.73;1.90;;;;;;;16.57;74.74;102293.53;5098236;27;97742;-33
2022/06/11 05:42:14;;;;;;;12.13;2.13;;;;;;;16.65;74.68;102291.16;5098142;27;97050;-33
2022/06/11 05:44:40;;;;;;;9.60;2.10;;;;;;;16.72;74.56;102297.13;5079279;27;96729;-33
2022/06/11 05:47:09;;;;;;;11.63;1.85;;;;;;;16.76;74.82;102295.97;5078382;27;101297;-33
2022/06/11 05:49:39;;;;;;;11.80;2.03;;;;;;;16.79;74.48;102284.84;5078265;27;101058;-33
2022/06/11 05:52:12;;;;;;;9.50;1.83;;;;;;;16.95;74.34;102301.16;5079117;27;96601;-33
2022/06/11 05:54:39;;;;;;;10.73;2.55;;;;;;;17.05;73.70;102295.97;5079047;27;96740;-33
2022/06/11 05:57:08;;;;;;;7.38;1.33;;;;;;;17.10;73.46;102294.66;5078765;27;101041;-33
2022/06/11 05:59:39;;;;;;;7.50;1.77;;;;;;;17.21;72.09;102288.50;5097440;27;97882;-33
2022/06/11 06:02:08;;;;;;;17.92;1.75;;;;;;;17.27;72.11;102293.53;5079160;27;96649;-33
2022/06/11 06:04:34;;;;;;;7.97;1.75;;;;;;;17.39;72.09;102302.78;5079321;27;96953;-33
2022/06/11 06:06:59;;;;;;;14.02;2.40;;;;;;;17.43;71.31;102303.50;5097415;27;97410;-33
2022/06/11 06:09:25;;;;;;;7.93;1.88;;;;;;;17.53;70.78;102302.75;5096921;27;97756;-33
2022/06/11 06:11:50;;;;;;;11.93;2.28;;;;;;;17.59;70.75;102306.91;5096423;27;105019;-33
2022/06/11 06:14:15;;;;;;;4.93;1.88;;;;;;;17.66;70.46;102302.78;5096409;27;107523;-33
2022/06/11 06:16:40;;;;;;;11.68;1.58;;;;;;;17.68;69.80;102309.03;5097079;27;102077;-33
2022/06/11 06:19:06;;;;;;;11.23;1.90;;;;;;;17.65;69.44;102312.00;5097250;27;97795;-33
2022/06/11 06:21:34;;;;;;;9.00;1.83;;;;;;;17.58;69.78;102295.09;5097396;27;96393;-33
2022/06/11 06:24:00;;;;;;;11.98;1.60;;;;;;;17.62;69.01;102298.50;5078593;27;96885;-33
2022/06/11 06:26:26;;;;;;;7.55;1.60;;;;;;;17.76;69.62;102297.56;5078277;27;100780;-33
2022/06/11 06:28:51;;;;;;;8.75;2.13;;;;;;;17.88;69.16;102295.88;5097508;27;97415;-33
2022/06/11 06:31:27;;;;;;;11.88;2.05;;;;;;;17.98;69.15;102297.84;5097195;27;96599;-33
2022/06/11 06:33:53;;;;;;;3.30;1.13;;;;;;;18.09;68.82;102297.13;5078535;27;96849;-33
2022/06/11 06:36:19;;;;;;;10.85;1.73;;;;;;;18.20;68.13;102291.72;5077273;27;101341;-33
2022/06/11 06:38:47;;;;;;;7.97;1.40;;;;;;;18.33;68.05;102307.31;5078183;27;100914;-33
2022/06/11 06:41:14;;;;;;;10.27;1.85;;;;;;;18.45;67.79;102303.72;5097308;27;96606;-33
2022/06/11 06:43:39;;;;;;;10.57;2.08;;;;;;;18.50;67.70;102315.25;5078502;27;96938;-33
2022/06/11 06:46:05;;;;;;;8.30;2.22;;;;;;;18.57;67.25;102310.19;5096796;27;97968;-33
2022/06/11 06:48:31;;;;;;;9.68;1.52;;;;;;;18.67;66.43;102311.28;5096634;27;97802;-33
2022/06/11 06:50:58;;;;;;;5.90;1.40;;;;;;;18.77;66.34;102319.75;5078168;27;96717;-33
2022/06/11 06:53:32;;;;;;;5.78;1.65;;;;;;;18.81;65.90;102313.06;5078718;27;96852;-33
2022/06/11 06:55:58;;;;;;;7.85;1.63;;;;;;;19.01;66.17;102322.56;5096325;27;99029;-33
2022/06/11 06:58:23;;;;;;;3.38;1.23;;;;;;;19.07;65.63;102322.13;5096707;27;97904;-33
2022/06/11 07:00:50;;;;;;;9.45;1.60;;;;;;;19.15;65.67;102321.56;5077864;27;96491;-33
2022/06/11 07:03:16;;;;;;;13.85;1.70;;;;;;;19.29;64.56;102329.63;5077766;27;96922;-33
2022/06/11 07:05:42;;;;;;;9.32;2.10;;;;;;;19.37;64.89;102323.56;5096560;27;97895;-33
2022/06/11 07:08:09;;;;;;;6.15;1.70;;;;;;;19.44;64.43;102328.47;5077706;27;100622;-33
2022/06/11 07:10:35;;;;;;;11.77;2.33;;;;;;;19.50;63.46;102325.28;5096536;27;96514;-33
2022/06/11 07:13:01;;;;;;;7.90;1.58;;;;;;;19.64;63.78;102331.56;5077747;27;96888;-33
2022/06/11 07:15:28;;;;;;;8.50;1.52;;;;;;;19.73;64.14;102329.06;5077765;27;99050;-33
2022/06/11 07:18:09;;;;;;;13.45;2.15;;;;;;;19.83;63.30;102325.56;5077900;27;100852;-33
2022/06/11 07:20:36;;;;;;;14.45;2.08;;;;;;;19.90;62.30;102333.25;5078016;27;96571;-33
2022/06/11 07:23:11;;;;;;;7.93;1.75;;;;;;;19.93;61.41;102341.25;5077882;27;96819;-33
2022/06/11 07:25:39;;;;;;;7.78;1.42;;;;;;;19.91;61.31;102342.38;5077096;27;100878;-33
2022/06/11 07:28:09;;;;;;;8.52;1.50;;;;;;;20.04;61.92;102336.78;5077480;27;101036;-33
2022/06/11 07:30:39;;;;;;;3.75;1.25;;;;;;;20.03;60.58;102335.91;5077541;27;96683;-33
2022/06/11 07:33:10;;;;;;;11.65;1.55;;;;;;;20.03;59.63;102337.78;5077622;27;96858;-33
2022/06/11 07:35:37;;;;;;;14.13;1.80;;;;;;;20.03;61.06;102338.66;5077327;27;100677;-33
2022/06/11 07:38:10;;;;;;;7.15;1.55;;;;;;;20.20;59.84;102337.34;5095680;27;97383;-33
2022/06/11 07:40:35;;;;;;;6.90;1.45;;;;;;;20.19;60.37;102331.94;5077820;27;96684;-33
2022/06/11 07:43:00;;;;;;;10.57;1.25;;;;;;;20.25;58.63;102331.47;5096547;27;96778;-33
2022/06/11 07:45:26;;;;;;;6.38;1.65;;;;;;;20.46;58.28;102339.91;5095929;27;97913;-33
2022/06/11 07:47:55;;;;;;;9.85;2.20;;;;;;;20.46;58.75;102327.00;5095640;27;99398;-33
2022/06/11 07:50:26;;;;;;;15.15;1.45;;;;;;;20.62;56.48;102328.56;5095579;27;96580;-33
2022/06/11 07:52:51;;;;;;;6.90;1.25;;;;;;;20.80;57.18;102340.84;5077398;27;96774;-33
2022/06/11 07:55:17;;;;;;;3.50;1.23;;;;;;;20.79;56.96;102334.47;5095866;27;97913;-33
2022/06/11 07:57:42;;;;;;;8.73;1.73;;;;;;;20.88;56.03;102342.97;5076909;27;100739;-33
2022/06/11 08:00:12;;;;;;;12.25;1.48;;;;;;;21.04;56.37;102348.09;5096114;27;96658;-33
2022/06/11 08:02:38;;;;;;;6.03;1.38;;;;;;;21.18;56.27;102334.94;5095796;27;96673;-33
2022/06/11 08:05:04;;;;;;;5.68;1.13;;;;;;;21.29;56.50;102341.47;5095378;27;99198;-33
2022/06/11 08:07:30;;;;;;;5.20;1.50;;;;;;;21.30;55.70;102354.22;5077389;27;101436;-33
2022/06/11 08:09:57;;;;;;;3.40;1.25;;;;;;;21.42;55.56;102354.09;5095306;27;96884;-33
2022/06/11 08:12:24;;;;;;;7.90;1.85;;;;;;;21.49;55.30;102342.56;5097517;27;96804;-33
2022/06/11 08:14:49;;;;;;;8.10;1.83;;;;;;;21.65;56.43;102355.94;5079909;27;100849;-33
2022/06/11 08:17:14;;;;;;;6.07;1.67;;;;;;;21.85;55.44;102355.09;5099164;27;97933;-33
2022/06/11 08:19:39;;;;;;;11.90;1.65;;;;;;;21.90;53.96;102346.44;5099188;27;96614;-33
2022/06/11 08:22:05;;;;;;;6.70;1.58;;;;;;;21.72;54.66;102360.78;5098755;27;100933;-33
2022/06/11 08:24:30;;;;;;;9.55;1.50;;;;;;;21.39;55.55;102364.47;5099067;27;97499;-33
2022/06/11 08:26:55;;;;;;;8.18;1.88;;;;;;;21.54;56.28;102359.59;5098624;27;106238;-33
2022/06/11 08:29:21;;;;;;;1.80;0.93;;;;;;;21.71;55.91;102341.59;5099181;27;96682;-33
2022/06/11 08:31:46;;;;;;;9.50;2.25;;;;;;;22.05;55.65;102348.75;5098925;27;100011;-33
2022/06/11 08:34:12;;;;;;;8.48;1.48;;;;;;;22.18;55.47;102343.03;5098633;27;99339;-33
2022/06/11 08:36:37;;;;;;;8.80;1.38;;;;;;;22.07;54.50;102345.84;5098847;27;97969;-33
2022/06/11 08:39:02;;;;;;;9.10;1.60;;;;;;;21.79;55.63;102352.88;5098830;27;96447;-33
2022/06/11 08:41:33;;;;;;;14.60;2.25;;;;;;;21.50;56.37;102359.00;5098864;27;96896;-33
2022/06/11 08:44:08;;;;;;;10.32;2.00;;;;;;;21.62;55.55;102346.91;5079868;27;101385;-33
2022/06/11 08:46:37;;;;;;;12.30;1.98;;;;;;;21.81;55.12;102342.59;5080108;27;101129;-33
2022/06/11 08:49:11;;;;;;;11.23;1.92;;;;;;;21.77;54.89;102358.53;5098828;27;96599;-33
2022/06/11 08:51:53;;;;;;;8.13;1.13;;;;;;;21.40;55.83;102336.84;5080273;27;96690;-33
2022/06/11 08:54:25;;;;;;;7.00;1.42;;;;;;;21.13;56.63;102350.09;5080018;27;100874;-33
2022/06/11 08:57:33;;;;;;;8.45;1.40;;;;;;;20.98;56.95;102352.25;5080205;27;100813;-33
2022/06/11 09:00:25;;;;;;;5.55;1.45;;;;;;;20.91;57.48;102343.59;5098977;27;96720;-33
2022/06/11 09:02:59;;;;;;;8.80;1.85;;;;;;;21.09;56.69;102357.72;5098835;27;96835;-33
2022/06/11 09:05:50;;;;;;;9.95;1.38;;;;;;;20.98;57.58;102341.22;5097764;27;99439;-33
2022/06/11 09:08:52;;;;;;;10.00;1.48;;;;;;;20.85;57.66;102348.72;5098209;27;99068;-33
2022/06/11 09:11:51;;;;;;;11.65;1.70;;;;;;;20.96;57.30;102346.84;5098318;27;96668;-33
2022/06/11 09:14:35;;;;;;;4.25;1.35;;;;;;;21.05;57.61;102350.75;5098401;27;97195;-33
2022/06/11 09:17:42;;;;;;;6.68;2.05;;;;;;;20.92;57.18;102344.47;5096855;27;97490;-33
2022/06/11 09:20:20;;;;;;;6.38;1.42;;;;;;;20.91;57.68;102323.44;5097866;27;97402;-33
2022/06/11 09:23:03;;;;;;;4.82;1.77;;;;;;;21.29;56.70;102334.06;5079248;27;96551;-33
2022/06/11 09:25:36;;;;;;;11.25;1.88;;;;;;;21.23;55.40;102340.06;5098985;27;96566;-33
2022/06/11 09:28:23;;;;;;;7.97;1.50;;;;;;;21.23;56.62;102347.47;5098215;27;97543;-33
2022/06/11 09:31:11;;;;;;;5.30;1.25;;;;;;;21.32;56.38;102339.31;5061978;27;105234;-33
2022/06/11 09:34:02;;;;;;;12.07;1.60;;;;;;;21.56;56.26;102341.91;5079061;27;96686;-33
2022/06/11 09:36:37;;;;;;;5.40;1.98;;;;;;;21.96;54.82;102332.13;5079189;27;96837;-33
2022/06/11 09:39:08;;;;;;;8.43;1.50;;;;;;;21.94;54.43;102339.66;5097787;27;98013;-33
2022/06/11 09:41:54;;;;;;;;;;;;;;;21.85;52.62;102344.06;5079495;27;100892;-34
2022/06/11 09:44:31;;;;;;;3.63;0.82;;;;;;;21.76;55.42;102345.75;5078975;27;96789;-33
2022/06/11 09:47:12;;;;;;;9.68;1.55;;;;;;;21.63;55.97;102351.41;5098202;27;96856;-33
2022/06/11 09:50:20;;;;;;;5.25;1.77;;;;;;;21.57;54.07;102351.03;5097773;27;97731;-33
2022/06/11 09:53:10;;;;;;;9.02;1.58;;;;;;;21.23;56.97;102351.09;5087053;27;99272;-33
2022/06/11 09:55:46;;;;;;;6.47;1.88;;;;;;;21.08;57.41;102342.22;5098125;27;96568;-33
2022/06/11 09:58:17;;;;;;;5.63;1.27;;;;;;;21.08;57.96;102360.63;5079282;27;96735;-33
2022/06/11 10:00:48;;;;;;;8.65;1.90;;;;;;;20.94;58.18;102354.38;5097117;27;97997;-33
2022/06/11 10:06:12;;;;;;;8.75;1.67;;;;;;;21.44;56.82;102353.97;5096357;27;96491;-33
2022/06/11 10:08:45;;;;;;;6.82;1.33;;;;;;;21.29;57.44;102360.75;5098009;27;96523;-33
2022/06/11 10:11:34;;;;;;;11.40;1.85;;;;;;;21.74;56.13;102369.81;5096712;27;99467;-33
2022/06/11 10:16:57;;;;;;;7.20;1.30;;;;;;;22.38;51.33;102360.66;5098254;27;96826;-33
2022/06/11 10:19:46;;;;;;;5.32;1.23;;;;;;;22.36;51.93;102370.09;5079261;27;96867;-33
2022/06/11 10:22:20;;;;;;;6.20;1.23;;;;;;;22.69;52.25;102371.72;5097411;27;97584;-33
2022/06/11 10:25:05;;;;;;;14.07;2.47;;;;;;;22.98;51.67;102373.81;5078407;27;100971;-33
2022/06/11 10:27:36;;;;;;;9.32;1.77;;;;;;;23.01;51.71;102359.72;5078047;27;96742;-33
2022/06/11 10:30:16;;;;;;;10.68;1.67;;;;;;;22.92;51.90;102366.03;5097558;27;96488;-33
2022/06/11 10:32:44;;;;;;;7.55;1.77;;;;;;;22.56;53.41;102369.19;5078266;27;100918;-33
2022/06/11 10:35:12;;;;;;;7.88;1.45;;;;;;;22.71;53.26;102374.38;5077771;27;100828;-33
2022/06/11 10:37:45;;;;;;;8.75;1.25;;;;;;;22.92;51.67;102374.34;5097038;27;96785;-33
2022/06/11 10:40:30;;;;;;;8.02;1.67;;;;;;;23.00;51.41;102377.31;5078379;27;96988;-33
2022/06/11 10:43:11;;;;;;;5.75;1.30;;;;;;;22.98;49.49;102368.28;5078230;27;101015;-33
2022/06/11 10:45:37;;;;;;;4.38;0.82;;;;;;;23.31;51.21;102372.63;5078600;27;101006;-33
2022/06/11 10:48:13;;;;;;;11.13;1.40;;;;;;;23.11;50.74;102369.78;5096918;27;96561;-33
2022/06/11 10:50:38;;;;;;;10.65;1.48;;;;;;;22.59;52.11;102376.34;5078416;27;96802;-33
2022/06/11 10:53:25;;;;;;;14.85;2.78;;;;;;;22.43;49.92;102385.97;5096096;27;97973;-33
2022/06/11 10:55:56;;;;;;;5.32;1.30;;;;;;;22.73;51.05;102373.22;5078043;27;98855;-33
2022/06/11 10:58:49;;;;;;;5.75;1.17;;;;;;;23.06;52.67;102376.75;5097088;27;96591;-33
2022/06/11 11:01:26;;;;;;;5.85;1.27;;;;;;;23.38;51.14;102376.56;5078227;27;96799;-33
2022/06/11 11:04:05;;;;;;;9.07;1.70;;;;;;;23.68;50.58;102375.63;5077950;27;100708;-33
2022/06/11 11:06:34;;;;;;;7.20;1.15;;;;;;;23.79;50.31;102377.44;5096479;27;98701;-33
2022/06/11 11:09:07;;;;;;;12.60;1.35;;;;;;;23.89;46.55;102372.78;5077739;27;96656;-34
2022/06/11 11:11:41;;;;;;;7.65;1.30;;;;;;;23.59;49.18;102373.72;5078365;27;96820;-33
2022/06/11 11:14:15;;;;;;;9.07;1.00;;;;;;;23.50;49.13;102369.03;5077536;27;101027;-33
2022/06/11 11:16:43;;;;;;;7.30;1.30;;;;;;;23.29;50.42;102375.56;5077760;27;100702;-33
2022/06/11 11:19:18;;;;;;;6.00;1.40;;;;;;;23.38;50.23;102378.47;5096035;27;96510;-33
2022/06/11 11:21:56;;;;;;;10.48;1.67;;;;;;;23.34;49.89;102383.44;5077823;27;96834;-34
2022/06/11 11:24:29;;;;;;;5.95;1.00;;;;;;;23.16;50.19;102376.81;5077616;27;100961;-33
2022/06/11 11:27:06;;;;;;;5.28;1.60;;;;;;;22.95;50.42;102372.16;5077438;27;100738;-34
2022/06/11 11:29:35;;;;;;;8.48;1.23;;;;;;;22.84;51.26;102373.13;5096312;27;96702;-34
2022/06/11 11:32:35;;;;;;;7.13;1.13;;;;;;;22.72;51.48;102365.09;5077537;27;96941;-34
2022/06/11 11:35:16;;;;;;;9.38;1.23;;;;;;;23.02;50.33;102372.53;5077369;27;101032;-34
2022/06/11 11:37:41;;;;;;;5.95;1.58;;;;;;;23.17;49.46;102376.69;5096233;27;97913;-33
2022/06/11 11:40:25;;;;;;;3.97;1.50;;;;;;;23.04;48.93;102381.56;5096457;27;97351;-33
2022/06/11 11:42:55;;;;;;;6.25;1.10;;;;;;;22.86;49.35;102371.13;5077792;27;96769;-34
2022/06/11 11:45:22;;;;;;;5.90;1.25;;;;;;;22.88;50.33;102382.91;5076722;27;100978;-33
2022/06/11 11:47:51;;;;;;;5.63;1.20;;;;;;;23.05;50.23;102375.03;5094820;27;99160;-34
2022/06/11 11:50:31;;;;;;;3.35;1.00;;;;;;;23.24;48.74;102380.63;5077466;27;96643;-33
2022/06/11 11:53:14;;;;;;;4.93;1.17;;;;;;;22.98;48.77;102388.53;5095804;27;97053;-34
2022/06/11 11:55:42;;;;;;;10.43;1.52;;;;;;;22.71;49.93;102382.66;5077098;27;100826;-34
2022/06/11 11:58:18;;;;;;;5.20;1.52;;;;;;;22.93;46.76;102384.38;5076404;27;100923;-34
2022/06/11 12:01:01;;;;;;;3.92;1.25;;;;;;;23.04;48.88;102389.84;5077319;27;96653;-34
2022/06/11 12:03:37;;;;;;;7.18;0.98;;;;;;;23.33;49.06;102381.66;5075694;27;96712;-34
2022/06/11 12:06:04;;;;;;;3.20;1.00;;;;;;;23.53;46.81;102374.31;5056541;27;101119;-33
2022/06/11 12:08:35;;;;;;;3.63;1.05;;;;;;;23.41;45.57;102368.03;5066412;27;100648;-34
2022/06/11 12:11:03;;;;;;;8.63;0.97;;;;;;;23.68;47.06;102375.63;5076381;27;96634;-34
2022/06/11 12:13:32;;;;;;;4.70;1.30;;;;;;;23.84;45.60;102380.66;5076490;27;96971;-33
2022/06/11 12:16:03;;;;;;;9.35;1.73;;;;;;;23.97;46.24;102369.28;5076232;27;101333;-34
2022/06/11 12:18:35;;;;;;;6.68;1.30;;;;;;;24.13;47.11;102386.19;5094790;27;99715;-33
2022/06/11 12:21:09;;;;;;;5.38;0.95;;;;;;;23.88;44.67;102376.59;5077176;27;96709;-33
2022/06/11 12:23:46;;;;;;;4.32;1.38;;;;;;;23.88;45.41;102379.34;5096015;27;96599;-34
2022/06/11 12:26:16;;;;;;;9.15;1.60;;;;;;;24.03;44.77;102384.47;5076689;27;101078;-34
2022/06/11 12:29:06;;;;;;;6.05;0.95;;;;;;;23.82;44.54;102379.06;5095302;27;97856;-33
2022/06/11 12:31:33;;;;;;;8.18;1.27;;;;;;;23.98;45.28;102376.59;5074690;27;96839;-33
2022/06/11 12:34:01;;;;;;;5.25;0.95;;;;;;;23.86;45.73;102375.84;5076504;27;96815;-33
2022/06/11 12:36:56;;;;;;;6.05;1.02;;;;;;;24.06;45.92;102385.03;5075681;27;101452;-34
2022/06/11 12:39:56;;;;;;;5.00;1.00;;;;;;;24.06;45.04;102389.69;5076236;27;100797;-33
2022/06/11 12:42:39;;;;;;;9.88;1.40;;;;;;;23.92;42.35;102382.69;5076353;27;96793;-33
2022/06/11 12:45:26;;;;;;;8.45;1.38;;;;;;;24.01;43.60;102379.06;5095537;27;96672;-34
2022/06/11 12:48:19;;;;;;;7.30;1.10;;;;;;;23.96;44.19;102389.69;5095193;27;97962;-33
2022/06/11 12:50:53;;;;;;;8.02;1.60;;;;;;;24.04;44.02;102389.84;5094955;27;97732;-34
2022/06/11 12:53:37;;;;;;;4.35;1.17;;;;;;;23.91;43.89;102395.66;5095070;27;96666;-34
2022/06/11 12:56:14;;;;;;;5.53;1.15;;;;;;;23.95;43.14;102391.59;5077066;27;96730;-33
2022/06/11 12:59:09;;;;;;;2.15;0.70;;;;;;;23.99;45.10;102392.16;5078575;27;100976;-34
2022/06/11 13:01:59;;;;;;;4.03;0.98;;;;;;;23.74;44.16;102399.16;5098292;27;97934;-35
2022/06/11 13:04:43;;;;;;;6.28;1.20;;;;;;;23.82;42.82;102388.22;5078652;27;96762;-34
2022/06/11 13:07:19;;;;;;;4.25;0.82;;;;;;;23.99;43.81;102394.94;5080153;27;96739;-34
2022/06/11 13:10:14;;;;;;;6.47;1.25;;;;;;;23.94;43.79;102389.81;5097445;27;99451;-34
2022/06/11 13:12:56;;;;;;;7.10;1.40;;;;;;;24.00;43.10;102385.59;5097902;27;98885;-34
2022/06/11 13:15:41;;;;;;;6.50;1.13;;;;;;;24.06;43.86;102386.94;5079457;27;96862;-34
2022/06/11 13:18:17;;;;;;;4.97;1.40;;;;;;;23.93;41.58;102384.44;5098503;27;96761;-34
2022/06/11 13:20:55;;;;;;;6.32;1.35;;;;;;;23.97;43.48;102379.50;5098095;27;99532;-34
2022/06/11 13:23:59;;;;;;;4.70;1.02;;;;;;;23.62;43.81;102390.06;5098525;27;97973;-34
2022/06/11 13:26:33;;;;;;;6.25;1.05;;;;;;;23.55;44.44;102397.19;5067124;27;96845;-34
2022/06/11 13:29:22;;;;;;;5.07;1.23;;;;;;;23.70;45.03;102387.44;5062068;27;96842;-34
2022/06/11 13:32:05;;;;;;;6.57;1.23;;;;;;;23.83;44.50;102387.19;5078826;27;100941;-34
2022/06/11 13:34:49;;;;;;;6.15;1.58;;;;;;;24.02;45.15;102391.00;5097370;27;99323;-34
2022/06/11 13:37:26;;;;;;;4.80;1.30;;;;;;;23.96;44.03;102378.63;5097810;27;96821;-34
2022/06/11 13:40:22;;;;;;;4.10;1.45;;;;;;;24.13;44.62;102386.19;5079677;27;96772;-34
2022/06/11 13:43:30;;;;;;;5.57;1.27;;;;;;;24.00;43.84;102385.59;5078693;27;101313;-34
2022/06/11 13:46:17;;;;;;;6.45;2.00;;;;;;;24.04;44.98;102381.53;5078919;27;100822;-34
2022/06/11 13:49:10;;;;;;;9.80;1.35;;;;;;;24.04;44.74;102389.84;5098107;27;96599;-34
2022/06/11 13:51:40;;;;;;;3.75;1.27;;;;;;;24.07;44.54;102372.91;5098168;27;96690;-34
2022/06/11 13:57:45;;;;;;;5.18;0.95;;;;;;;23.98;44.09;102387.66;5076200;27;97051;-34
2022/06/11 14:00:38;;;;;;;3.78;1.10;;;;;;;24.02;43.85;102375.25;5076739;27;96743;-34
2022/06/11 14:03:38;;;;;;;3.90;1.05;;;;;;;24.00;42.99;102374.53;5096496;27;96793;-34
2022/06/11 14:06:14;;;;;;;5.90;1.00;;;;;;;23.78;43.34;102370.16;5078638;27;101360;-34
2022/06/11 14:08:50;;;;;;;3.80;1.25;;;;;;;23.80;43.53;102361.72;5078669;27;100865;-34
2022/06/11 14:11:39;;;;;;;4.72;1.02;;;;;;;23.74;44.12;102358.50;5096960;27;96668;-34
2022/06/11 14:14:32;;;;;;;5.30;1.58;;;;;;;23.76;43.89;102360.25;5078592;27;97103;-34
2022/06/11 14:17:36;;;;;;;2.88;0.98;;;;;;;23.78;43.92;102364.59;5076733;27;97377;-34
2022/06/11 14:20:26;;;;;;;2.97;0.88;;;;;;;23.81;44.11;102364.34;5076747;27;99267;-34
2022/06/11 14:23:04;;;;;;;4.72;1.48;;;;;;;23.79;44.58;102366.38;5076458;27;96501;-34
2022/06/11 14:25:48;;;;;;;4.53;1.08;;;;;;;23.83;44.61;102366.94;5068395;27;96730;-34
2022/06/11 14:28:16;;;;;;;6.53;0.98;;;;;;;23.79;43.54;102359.94;5077970;27;100483;-34
2022/06/11 14:31:01;;;;;;;3.95;1.13;;;;;;;23.85;45.09;102365.78;5096656;27;99163;-34
2022/06/11 14:36:41;;;;;;;3.65;1.08;;;;;;;23.74;45.20;102363.16;5061019;27;96945;-34
2022/06/11 14:39:18;;;;;;;5.15;0.80;;;;;;;23.65;44.51;102344.63;5078135;27;101104;-34
2022/06/11 14:41:46;;;;;;;5.95;1.35;;;;;;;23.68;45.05;102349.88;5078085;27;100868;-34
2022/06/11 14:44:16;;;;;;;4.47;0.90;;;;;;;23.67;45.01;102349.00;5078385;27;96611;-34
2022/06/11 14:46:45;;;;;;;4.68;1.00;;;;;;;23.63;44.64;102332.81;5078802;27;96912;-34
2022/06/11 14:49:18;;;;;;;4.72;1.17;;;;;;;23.54;45.50;102340.94;5077862;27;100921;-34
2022/06/11 14:52:03;;;;;;;3.75;0.80;;;;;;;23.38;45.86;102345.28;5077789;27;100737;-34
2022/06/11 14:54:41;;;;;;;5.65;1.17;;;;;;;23.35;44.60;102340.03;5096047;27;96784;-34
2022/06/11 14:57:30;;;;;;;3.38;1.00;;;;;;;23.34;45.77;102335.53;5096674;27;96861;-34
2022/06/11 15:00:19;;;;;;;9.75;1.27;;;;;;;23.21;45.36;102331.13;5078046;27;100814;-34
2022/06/11 15:03:24;;;;;;;5.50;1.13;;;;;;;23.26;45.66;102341.75;5096451;27;99158;-34
2022/06/11 15:06:19;;;;;;;2.33;0.85;;;;;;;23.20;46.24;102334.03;5096828;27;96694;-34
2022/06/11 15:09:03;;;;;;;5.25;1.42;;;;;;;23.13;46.10;102343.91;5096475;27;96660;-34
2022/06/11 15:11:34;;;;;;;1.85;0.73;;;;;;;23.21;46.65;102342.19;5077766;27;99033;-34
2022/06/11 15:14:24;;;;;;;4.30;0.80;;;;;;;23.26;45.99;102339.00;5077814;27;100532;-34
2022/06/11 15:17:04;;;;;;;3.22;0.73;;;;;;;23.18;46.14;102333.31;5078116;27;96651;-34
2022/06/11 15:19:33;;;;;;;7.80;1.00;;;;;;;23.08;46.05;102336.03;5077967;27;96791;-34
2022/06/11 15:22:19;;;;;;;3.58;0.75;;;;;;;23.06;45.87;102340.84;5094654;27;98079;-34
2022/06/11 15:24:56;;;;;;;6.25;1.58;;;;;;;23.09;46.31;102357.13;5077678;27;101015;-34
2022/06/11 15:27:34;;;;;;;8.75;1.60;;;;;;;22.93;45.22;102342.91;5096305;27;96586;-33
2022/06/11 15:30:21;;;;;;;3.20;1.00;;;;;;;22.87;45.56;102336.06;5077649;27;96850;-34
2022/06/11 15:32:47;;;;;;;1.17;0.60;;;;;;;22.81;44.89;102342.13;5095815;27;99433;-34
2022/06/11 15:35:28;;;;;;;8.10;1.77;;;;;;;22.78;45.51;102339.66;5077415;27;101001;-34
2022/06/11 15:37:57;;;;;;;4.13;1.02;;;;;;;22.72;45.34;102337.47;5077340;27;96827;-34
2022/06/11 15:40:40;;;;;;;3.35;0.88;;;;;;;22.65;44.06;102337.13;5077955;27;96594;-34
2022/06/11 15:43:35;;;;;;;6.13;1.08;;;;;;;22.66;44.81;102336.09;5077300;27;102106;-34
2022/06/11 15:46:05;;;;;;;4.97;0.88;;;;;;;22.67;46.17;102335.97;5092720;27;97432;-34
2022/06/11 15:48:38;;;;;;;6.18;0.98;;;;;;;22.75;45.88;102343.56;5076826;27;96771;-33
2022/06/11 15:51:12;;;;;;;3.00;0.73;;;;;;;22.75;45.77;102342.69;5077601;27;96760;-33
2022/06/11 15:56:35;;;;;;;2.53;0.60;;;;;;;22.61;45.73;102339.28;4985784;27;97239;-34
2022/06/11 15:59:27;;;;;;;2.70;0.95;;;;;;;22.60;43.89;102339.44;5096185;27;96760;-34
2022/06/11 16:01:57;;;;;;;14.30;1.98;;;;;;;22.49;44.49;102326.56;5073147;27;96914;-34
2022/06/11 16:04:45;;;;;;;4.05;0.77;;;;;;;22.44;43.55;102329.72;5077091;27;100439;-34
2022/06/11 16:07:25;;;;;;;1.75;0.50;;;;;;;22.50;45.01;102339.38;5077076;27;100973;-34
2022/06/11 16:09:51;;;;;;;2.40;0.80;;;;;;;22.52;45.26;102328.16;5095455;27;96866;-34
2022/06/11 16:12:31;;;;;;;2.97;0.68;;;;;;;22.56;44.72;102346.22;5076926;27;96846;-34
2022/06/11 16:15:14;;;;;;;3.58;0.77;;;;;;;22.47;43.94;102340.50;5073053;27;101350;-35
2022/06/11 16:17:44;;;;;;;1.77;0.50;;;;;;;22.39;45.29;102337.56;5076342;27;102769;-34
2022/06/11 16:20:30;;;;;;;0.43;0.23;;;;;;;22.36;42.57;102335.06;5095692;27;96667;-34
2022/06/11 16:23:21;;;;;;;2.80;0.50;;;;;;;22.33;44.72;102331.69;5077215;27;96861;-34
2022/06/11 16:25:50;;;;;;;2.40;0.40;;;;;;;22.24;44.88;102331.50;5095884;27;97436;-34
2022/06/11 16:28:24;;;;;;;2.47;0.60;;;;;;;22.14;44.09;102326.88;5076703;27;100863;-34
2022/06/11 16:30:50;;;;;;;1.10;0.40;;;;;;;22.15;45.36;102328.63;5111508;27;96652;-34
2022/06/11 16:33:20;;;;;;;1.25;0.47;;;;;;;22.15;45.02;102334.16;5097767;27;96783;-34
2022/06/11 16:35:54;;;;;;;2.45;0.47;;;;;;;22.06;44.52;102331.16;5098651;27;99309;-34
2022/06/11 16:38:27;;;;;;;1.10;0.50;;;;;;;22.18;44.25;102337.50;5079589;27;101101;-34
2022/06/11 16:40:59;;;;;;;3.72;0.60;;;;;;;22.14;44.92;102335.16;5079927;27;96692;-34
2022/06/11 16:43:27;;;;;;;2.28;0.70;;;;;;;22.14;43.59;102327.72;5080450;27;97799;-34
2022/06/11 16:45:57;;;;;;;3.03;0.90;;;;;;;22.08;45.04;102333.81;5079937;27;101113;-34
2022/06/11 16:48:22;;;;;;;1.48;0.38;;;;;;;22.04;43.97;102338.69;5098514;27;97417;-34
2022/06/11 16:56:33;;;;;;;1.85;0.45;;;;;;;21.86;45.43;102329.28;5099020;27;97050;-34
2022/06/11 16:58:59;;;;;;;6.82;1.08;;;;;;;21.89;46.10;102342.81;5080320;27;101191;-34
2022/06/11 17:01:34;;;;;;;1.17;0.50;;;;;;;21.81;45.87;102337.09;5098526;27;96759;-34
2022/06/11 17:04:29;;;;;;;4.20;0.98;;;;;;;21.78;46.10;102334.56;5080152;27;96633;-34
2022/06/11 17:07:21;;;;;;;2.92;0.73;;;;;;;21.76;45.85;102343.00;5079424;27;100671;-34
2022/06/11 17:09:46;;;;;;;2.63;0.82;;;;;;;21.76;45.98;102344.84;5079196;27;100680;-34
2022/06/11 17:12:42;;;;;;;4.47;1.02;;;;;;;21.70;46.05;102354.53;5098037;27;96793;-34
2022/06/11 17:15:10;;;;;;;3.22;0.75;;;;;;;21.61;45.99;102347.91;5080154;27;96687;-33
2022/06/11 17:17:53;;;;;;;0.98;0.50;;;;;;;21.59;46.37;102349.91;5098271;27;98905;-34
2022/06/11 17:20:33;;;;;;;4.32;0.70;;;;;;;21.59;46.20;102344.41;5079636;27;100951;-34
2022/06/11 17:23:13;;;;;;;2.58;0.52;;;;;;;21.54;46.33;102345.81;5079782;27;96629;-34
2022/06/11 17:25:40;;;;;;;3.40;0.52;;;;;;;21.45;46.53;102341.94;5114701;27;96782;-34
2022/06/11 17:28:21;;;;;;;4.05;0.43;;;;;;;21.45;46.14;102339.16;5079411;27;100727;-34
2022/06/11 17:30:47;;;;;;;2.25;0.60;;;;;;;21.35;45.97;102352.81;5079521;27;100728;-34